Time;durP1;ratioP1;P1;durP2;ratioP2;P2;SDS_P1;SDS_P2;PMS_P1;PMS_P2;Temp;Humidity;BMP_temperature;BMP_pressure;BME280_temperature;BME280_humidity;BME280_pressure;Samples;Min_cycle;Max_cycle;Signal;HPM_P1;HPM_P2
2024/03/18 01:21:11;;;;;;;;;;;;;;;10.08;100.00;100560.41;5020761;28;20387;-81
2024/03/18 07:47:19;;;;;;;;;;;;;;;13.84;80.57;100497.44;5011718;28;20426;-79
2024/03/18 07:56:03;;;;;;;;;;;;;;;13.98;77.45;100496.91;5012293;28;20421;-79
2024/03/18 08:13:42;;;;;;;;;;;;;;;14.18;69.11;100480.06;5007796;28;19944;-81
2024/03/18 08:37:47;;;;;;;;;;;;;;;14.76;65.83;100448.38;5004836;28;19979;-79
2024/03/18 08:58:29;;;;;;;;;;;;;;;15.62;56.03;100391.78;5009291;28;19991;-79
2024/03/18 09:00:55;;;;;;;;;;;;;;;15.62;59.44;100389.19;4989548;28;20387;-80
2024/03/18 09:03:26;;;;;;;;;;;;;;;15.77;55.81;100390.25;4988958;28;20493;-80
2024/03/18 10:13:35;;;;;;;;;;;;;;;17.34;48.09;100310.31;5012415;28;20016;-76
2024/03/18 10:16:01;;;;;;;;;;;;;;;17.17;48.00;100299.78;5010952;28;19965;-76
2024/03/18 10:18:27;;;;;;;;;;;;;;;16.83;49.82;100296.84;5014230;28;19917;-78
2024/03/18 10:20:52;;;;;;;;;;;;;;;16.77;49.58;100302.91;5014057;28;20362;-82
2024/03/18 10:23:19;;;;;;;;;;;;;;;16.79;48.69;100293.34;5014017;28;19918;-80
2024/03/18 10:25:46;;;;;;;;;;;;;;;17.28;47.49;100286.78;5013778;28;20466;-80
2024/03/18 10:28:14;;;;;;;;;;;;;;;17.60;46.78;100283.50;5014556;28;19921;-80
2024/03/18 10:30:40;;;;;;;;;;;;;;;17.37;49.80;100276.41;5014178;28;19918;-80
2024/03/18 10:33:07;;;;;;;;;;;;;;;17.43;49.47;100275.56;5092101;22;20011;-90
2024/03/18 10:35:34;;;;;;;;;;;;;;;17.59;48.24;100268.69;5019829;28;20031;-87
2024/03/18 10:41:04;;;;;;;;;;;;;;;17.68;47.11;100260.88;5024871;28;20448;-84
2024/03/18 10:43:36;;;;;;;;;;;;;;;17.94;46.49;100248.00;5020691;28;19979;-85
2024/03/18 10:46:01;;;;;;;;;;;;;;;18.16;47.38;100250.63;5014867;28;19921;-84
2024/03/18 10:48:27;;;;;;;;;;;;;;;18.38;45.67;100237.59;5025722;28;19925;-84
2024/03/18 10:50:53;;;;;;;;;;;;;;;18.09;45.93;100234.09;5037653;28;20287;-84
2024/03/18 10:53:24;;;;;;;;;;;;;;;17.99;47.26;100234.91;5021936;28;19929;-86
2024/03/18 10:55:52;;;;;;;;;;;;;;;18.45;45.16;100230.66;5029735;28;19925;-84
2024/03/18 10:58:19;;;;;;;;;;;;;;;18.77;44.55;100225.44;5024319;28;20028;-84
2024/03/18 11:00:45;;;;;;;;;;;;;;;18.36;46.20;100224.53;5029999;28;19944;-83
2024/03/18 11:03:14;;;;;;;;;;;;;;;18.53;44.95;100221.06;5025227;28;19956;-84
2024/03/18 11:05:50;;;;;;;;;;;;;;;18.24;45.06;100209.72;5022939;28;20401;-85
2024/03/18 11:08:20;;;;;;;;;;;;;;;18.06;46.96;100218.41;5004348;28;19987;-82
2024/03/18 11:10:46;;;;;;;;;;;;;;;18.14;47.00;100207.94;5013929;28;19929;-82
2024/03/18 11:13:12;;;;;;;;;;;;;;;18.34;47.32;100197.53;5023814;28;19917;-83
2024/03/18 11:15:38;;;;;;;;;;;;;;;18.81;44.57;100194.91;5014602;28;20020;-82
2024/03/18 11:18:07;;;;;;;;;;;;;;;18.95;46.84;100187.06;5022622;28;19925;-82
2024/03/18 11:20:53;;;;;;;;;;;;;;;19.04;46.08;100192.28;5021777;28;20294;-84
2024/03/18 11:23:23;;;;;;;;;;;;;;;18.49;47.40;100182.72;5020885;28;19932;-83
2024/03/18 11:25:55;;;;;;;;;;;;;;;18.85;47.87;100178.34;5012251;28;19976;-82
2024/03/18 11:28:36;;;;;;;;;;;;;;;18.36;46.48;100184.47;5022119;28;20306;-80
2024/03/18 11:31:06;;;;;;;;;;;;;;;18.15;47.79;100170.50;5012342;28;20433;-82
2024/03/18 11:33:33;;;;;;;;;;;;;;;18.19;46.06;100166.16;5014429;28;19925;-81
2024/03/18 11:36:02;;;;;;;;;;;;;;;18.67;44.13;100153.09;5023196;28;19980;-83
2024/03/18 11:38:28;;;;;;;;;;;;;;;18.92;43.86;100143.47;5023277;28;19956;-84
2024/03/18 11:40:54;;;;;;;;;;;;;;;19.26;44.60;100139.88;5023079;28;20014;-84
2024/03/18 11:43:20;;;;;;;;;;;;;;;19.44;46.07;100138.91;5012103;28;19925;-84
2024/03/18 11:45:46;;;;;;;;;;;;;;;18.90;47.42;100139.94;5020642;28;20063;-82
2024/03/18 11:48:12;;;;;;;;;;;;;;;18.88;49.09;100134.75;5018853;28;19928;-83
2024/03/18 11:50:38;;;;;;;;;;;;;;;18.69;47.80;100135.63;5024391;28;20054;-81
2024/03/18 11:53:05;;;;;;;;;;;;;;;18.83;48.66;100125.16;5026543;28;19928;-83
2024/03/18 11:55:37;;;;;;;;;;;;;;;19.34;48.11;100127.63;5022455;28;19921;-82
2024/03/18 11:58:03;;;;;;;;;;;;;;;19.45;47.26;100122.34;5014391;28;19922;-84
2024/03/18 12:00:33;;;;;;;;;;;;;;;18.82;48.31;100129.53;4991477;28;20201;-80
2024/03/18 12:03:00;;;;;;;;;;;;;;;18.67;45.66;100119.97;5012192;28;19945;-82
2024/03/18 12:05:26;;;;;;;;;;;;;;;19.10;45.23;100111.13;5021658;28;19929;-82
2024/03/18 12:07:53;;;;;;;;;;;;;;;19.46;44.49;100106.63;5021851;28;19995;-81
2024/03/18 12:10:19;;;;;;;;;;;;;;;19.52;44.86;100106.59;5021909;28;19928;-84
2024/03/18 12:12:45;;;;;;;;;;;;;;;19.77;43.52;100092.47;5020557;28;19920;-82
2024/03/18 12:15:10;;;;;;;;;;;;;;;20.01;43.43;100087.09;5020011;28;19925;-83
2024/03/18 12:17:36;;;;;;;;;;;;;;;19.89;45.94;100081.94;5030747;28;20033;-82
2024/03/18 12:20:03;;;;;;;;;;;;;;;20.15;45.03;100088.69;5020702;28;19932;-82
2024/03/18 12:22:29;;;;;;;;;;;;;;;20.41;43.12;100080.63;5011259;28;19947;-82
2024/03/18 12:30:31;;;;;;;;;;;;;;;18.79;46.84;100092.03;5016381;28;19928;-81
2024/03/18 12:32:57;;;;;;;;;;;;;;;18.96;46.62;100065.88;5020403;28;19922;-80
2024/03/18 12:35:22;;;;;;;;;;;;;;;19.30;46.93;100065.69;5027087;28;20016;-82
2024/03/18 12:37:48;;;;;;;;;;;;;;;19.58;46.78;100058.56;5010815;28;19925;-82
2024/03/18 12:40:17;;;;;;;;;;;;;;;19.46;46.64;100056.88;5021906;28;20270;-81
2024/03/18 12:42:46;;;;;;;;;;;;;;;19.31;46.00;100059.59;5023284;28;19956;-80
2024/03/18 12:45:12;;;;;;;;;;;;;;;18.60;48.43;100065.94;5027713;28;19917;-81
2024/03/18 12:47:37;;;;;;;;;;;;;;;18.76;49.36;100051.09;5020817;28;19948;-84
2024/03/18 12:50:03;;;;;;;;;;;;;;;18.85;50.73;100056.25;5019452;28;19918;-82
2024/03/18 12:52:28;;;;;;;;;;;;;;;18.51;50.13;100059.00;5028378;28;19987;-81
2024/03/18 12:54:54;;;;;;;;;;;;;;;18.66;50.12;100044.16;5020139;28;20011;-82
2024/03/18 12:57:20;;;;;;;;;;;;;;;18.74;47.18;100039.75;5021307;28;20290;-82
2024/03/18 12:59:46;;;;;;;;;;;;;;;19.18;45.33;100030.03;5020183;28;19917;-83
2024/03/18 13:02:13;;;;;;;;;;;;;;;19.45;49.34;100036.84;5020407;28;19924;-83
2024/03/18 13:04:38;;;;;;;;;;;;;;;19.58;45.93;100029.75;5019486;28;20286;-84
2024/03/18 13:07:04;;;;;;;;;;;;;;;19.48;47.11;100026.31;5019949;28;19925;-83
2024/03/18 13:09:31;;;;;;;;;;;;;;;19.58;44.93;100028.88;5009977;28;19922;-82
2024/03/18 13:11:57;;;;;;;;;;;;;;;19.67;44.90;100028.81;5012932;28;19968;-82
2024/03/18 13:14:24;;;;;;;;;;;;;;;19.75;47.39;100024.41;5010785;28;19922;-81
2024/03/18 13:16:49;;;;;;;;;;;;;;;19.83;45.05;100019.13;5017964;28;19928;-81
2024/03/18 13:19:14;;;;;;;;;;;;;;;19.92;44.23;100010.31;5020563;28;19943;-82
2024/03/18 13:21:40;;;;;;;;;;;;;;;19.81;46.17;100012.97;5022837;28;19965;-81
2024/03/18 13:24:06;;;;;;;;;;;;;;;19.47;46.89;100014.09;5010585;28;20382;-81
2024/03/18 13:26:31;;;;;;;;;;;;;;;19.24;48.21;100004.66;5023426;28;19975;-80
2024/03/18 13:28:57;;;;;;;;;;;;;;;19.24;47.75;100012.53;5018865;28;19943;-83
2024/03/18 13:31:22;;;;;;;;;;;;;;;19.20;46.56;100005.56;5020409;28;19971;-82
2024/03/18 13:33:48;;;;;;;;;;;;;;;19.40;47.82;100012.41;5021057;28;20020;-81
2024/03/18 13:36:14;;;;;;;;;;;;;;;19.32;47.05;100006.38;5012928;28;19987;-83
2024/03/18 13:38:40;;;;;;;;;;;;;;;19.51;45.24;100009.72;5018003;28;20000;-83
2024/03/18 13:41:07;;;;;;;;;;;;;;;19.31;46.20;100009.88;5019266;28;20012;-83
2024/03/18 13:43:32;;;;;;;;;;;;;;;19.39;45.82;100005.47;5015939;28;20357;-84
2024/03/18 13:45:59;;;;;;;;;;;;;;;19.63;44.13;100004.41;5019988;28;19956;-83
2024/03/18 13:48:24;;;;;;;;;;;;;;;19.42;48.63;100000.19;5017929;28;19921;-81
2024/03/18 13:50:50;;;;;;;;;;;;;;;19.06;47.01;99996.91;5021704;28;19939;-82
2024/03/18 13:53:16;;;;;;;;;;;;;;;19.07;45.79;99999.53;5023442;28;19917;-82
2024/03/18 13:55:43;;;;;;;;;;;;;;;18.90;46.11;99997.00;5021040;28;19927;-83
2024/03/18 13:58:09;;;;;;;;;;;;;;;18.75;46.75;99997.03;5020463;28;19964;-82
2024/03/18 14:00:36;;;;;;;;;;;;;;;18.69;45.94;99992.72;5017788;28;19980;-82
2024/03/18 14:03:01;;;;;;;;;;;;;;;18.74;46.06;100000.53;5020609;28;19924;-82
2024/03/18 14:05:26;;;;;;;;;;;;;;;18.84;46.74;99991.78;5019861;28;20116;-82
2024/03/18 14:07:52;;;;;;;;;;;;;;;18.88;46.04;99987.41;5011830;28;19917;-81
2024/03/18 14:10:18;;;;;;;;;;;;;;;19.03;45.96;99983.88;5008976;28;19917;-80
2024/03/18 14:12:44;;;;;;;;;;;;;;;18.88;45.58;99980.41;5009233;28;20331;-83
2024/03/18 14:15:11;;;;;;;;;;;;;;;18.70;47.71;99981.34;5011271;28;20024;-83
2024/03/18 14:17:36;;;;;;;;;;;;;;;18.59;45.44;99981.44;5010943;28;19925;-81
2024/03/18 14:20:05;;;;;;;;;;;;;;;18.73;47.47;99983.13;5018819;28;19917;-80
2024/03/18 14:22:31;;;;;;;;;;;;;;;18.78;47.16;99980.47;4991109;28;20015;-82
2024/03/18 14:25:00;;;;;;;;;;;;;;;18.56;46.21;99980.56;5017392;28;20015;-80
2024/03/18 14:27:25;;;;;;;;;;;;;;;18.58;46.81;99978.81;5017644;28;19921;-80
2024/03/18 14:29:50;;;;;;;;;;;;;;;18.79;49.23;99969.13;5020268;28;19929;-80
2024/03/18 14:32:16;;;;;;;;;;;;;;;18.91;48.44;99962.09;5020563;28;19921;-80
2024/03/18 14:34:42;;;;;;;;;;;;;;;18.79;47.50;99972.63;5019182;28;19922;-80
2024/03/18 14:37:09;;;;;;;;;;;;;;;18.85;46.26;99966.47;5021091;28;19925;-80
2024/03/18 14:39:36;;;;;;;;;;;;;;;18.76;47.70;99968.25;5025701;28;19934;-79
2024/03/18 14:42:02;;;;;;;;;;;;;;;18.76;46.18;99959.56;5021638;28;20283;-80
2024/03/18 14:44:31;;;;;;;;;;;;;;;18.72;46.60;99976.16;5017594;28;19922;-80
2024/03/18 14:46:57;;;;;;;;;;;;;;;18.83;46.88;99957.75;4990320;28;19922;-77
2024/03/18 14:49:22;;;;;;;;;;;;;;;18.99;47.13;99966.44;5004529;28;20367;-80
2024/03/18 14:51:49;;;;;;;;;;;;;;;19.01;45.68;99965.53;5029701;28;19917;-80
2024/03/18 14:54:14;;;;;;;;;;;;;;;19.10;46.50;99966.38;5019501;28;19968;-80
2024/03/18 14:56:40;;;;;;;;;;;;;;;19.09;46.77;99960.28;5024848;28;20374;-80
2024/03/18 14:59:06;;;;;;;;;;;;;;;18.89;46.40;99958.63;5023734;28;19936;-79
2024/03/18 15:01:33;;;;;;;;;;;;;;;18.97;45.70;99963.84;5022887;28;19921;-80
2024/03/18 15:03:58;;;;;;;;;;;;;;;18.80;46.70;99958.66;5022595;28;20012;-80
2024/03/18 15:06:24;;;;;;;;;;;;;;;18.88;46.17;99962.09;5022676;28;20024;-80
2024/03/18 15:08:49;;;;;;;;;;;;;;;18.97;47.54;99966.44;5022683;28;19988;-80
2024/03/18 15:11:15;;;;;;;;;;;;;;;18.97;45.32;99958.59;5022574;28;19918;-80
2024/03/18 15:13:51;;;;;;;;;;;;;;;18.82;46.77;99962.13;5021757;28;19924;-82
2024/03/18 15:16:17;;;;;;;;;;;;;;;18.50;48.79;99972.75;5014987;28;20011;-81
2024/03/18 15:18:46;;;;;;;;;;;;;;;18.23;50.42;99967.59;5021706;28;19925;-80
2024/03/18 15:21:11;;;;;;;;;;;;;;;18.15;49.40;99969.34;5019448;28;20382;-81
2024/03/18 15:29:05;;;;;;;;;;;;;;;17.82;51.19;99971.13;5017918;28;19928;-82
2024/03/18 15:31:31;;;;;;;;;;;;;;;17.72;52.04;99974.59;5021821;28;20281;-82
2024/03/18 15:33:58;;;;;;;;;;;;;;;17.66;52.04;99970.25;5015281;28;19964;-82
2024/03/18 15:36:23;;;;;;;;;;;;;;;17.67;53.85;99965.88;5019272;28;20370;-81
2024/03/18 15:38:48;;;;;;;;;;;;;;;17.69;53.15;99969.38;5017054;28;19922;-80
2024/03/18 15:41:14;;;;;;;;;;;;;;;17.72;53.87;99970.25;5010793;28;19925;-81
2024/03/18 15:43:39;;;;;;;;;;;;;;;17.82;54.52;99971.13;5018072;28;19921;-81
2024/03/18 15:46:06;;;;;;;;;;;;;;;17.96;53.72;99963.31;5016664;28;19926;-82
2024/03/18 15:48:32;;;;;;;;;;;;;;;18.05;54.20;99970.25;5011453;28;19961;-82
2024/03/18 15:50:57;;;;;;;;;;;;;;;17.90;53.28;99971.97;5023804;28;19965;-81
2024/03/18 15:53:24;;;;;;;;;;;;;;;17.80;53.67;99975.47;5023781;28;19956;-81
2024/03/18 15:55:49;;;;;;;;;;;;;;;17.81;53.24;99974.59;5013315;28;19925;-82
2024/03/18 15:58:15;;;;;;;;;;;;;;;17.89;53.53;99972.84;5021153;28;19936;-80
2024/03/18 16:00:40;;;;;;;;;;;;;;;17.99;53.05;99972.88;5022035;28;19921;-80
2024/03/18 16:03:08;;;;;;;;;;;;;;;18.10;53.62;99977.19;5021784;28;19917;-81
2024/03/18 16:05:37;;;;;;;;;;;;;;;18.17;56.40;99980.69;5022972;28;19917;-81
2024/03/18 16:08:03;;;;;;;;;;;;;;;18.10;56.27;99978.94;5023568;28;19929;-81
2024/03/18 16:10:30;;;;;;;;;;;;;;;18.15;55.63;99973.72;5023389;28;19925;-80
2024/03/18 16:13:04;;;;;;;;;;;;;;;18.13;55.35;99973.72;5017960;28;20023;-80
2024/03/18 16:15:49;;;;;;;;;;;;;;;18.00;57.46;99982.44;5021199;28;19921;-80
2024/03/18 16:18:15;;;;;;;;;;;;;;;17.92;57.55;99978.06;4989462;28;19921;-80
2024/03/18 16:20:41;;;;;;;;;;;;;;;17.95;58.00;99979.84;4989578;28;20543;-81
2024/03/18 16:23:08;;;;;;;;;;;;;;;17.88;59.27;99980.69;4983539;28;20518;-81
2024/03/18 16:25:33;;;;;;;;;;;;;;;17.94;58.39;99981.59;4983395;28;19926;-79
2024/03/18 16:27:59;;;;;;;;;;;;;;;17.91;59.14;99980.69;4985698;28;20387;-82
2024/03/18 16:30:24;;;;;;;;;;;;;;;17.93;59.72;99984.16;4970007;28;19945;-84
2024/03/18 16:32:49;;;;;;;;;;;;;;;17.96;58.90;99978.97;4968989;28;19973;-84
2024/03/18 16:35:19;;;;;;;;;;;;;;;17.95;58.99;99978.06;4971606;28;19921;-83
2024/03/18 16:37:44;;;;;;;;;;;;;;;18.00;57.94;99985.06;4988678;28;19918;-82
2024/03/18 16:40:12;;;;;;;;;;;;;;;18.00;57.95;99985.91;4983623;28;19928;-82
2024/03/18 16:42:39;;;;;;;;;;;;;;;17.94;58.86;99983.31;4990607;28;19936;-81
2024/03/18 16:45:05;;;;;;;;;;;;;;;17.94;59.71;99985.94;4977026;28;20004;-87
2024/03/18 16:47:30;;;;;;;;;;;;;;;17.84;60.52;99984.16;4989438;28;19924;-82
2024/03/18 16:49:57;;;;;;;;;;;;;;;17.82;60.20;99991.13;5002663;28;20377;-89
2024/03/18 16:52:23;;;;;;;;;;;;;;;17.84;58.51;99985.03;5010889;28;20411;-91
2024/03/18 16:54:48;;;;;;;;;;;;;;;17.85;60.22;99992.00;4999749;28;19928;-93
2024/03/18 16:57:15;;;;;;;;;;;;;;;17.82;59.52;99986.78;4999477;28;20009;-83
2024/03/18 16:59:41;;;;;;;;;;;;;;;17.77;58.90;99994.63;4981341;28;20463;-88
2024/03/18 17:02:10;;;;;;;;;;;;;;;17.75;60.16;99987.66;4969873;28;20009;-84
2024/03/18 17:04:39;;;;;;;;;;;;;;;17.73;59.99;99992.00;4926063;29;20404;-86
2024/03/18 17:07:04;;;;;;;;;;;;;;;17.52;64.04;99996.34;4924481;29;19931;-90
2024/03/18 17:09:29;;;;;;;;;;;;;;;17.03;64.04;99993.66;4928289;29;20007;-80
2024/03/18 17:11:55;;;;;;;;;;;;;;;16.69;65.81;99998.72;4919647;29;20380;-89
2024/03/18 17:14:23;;;;;;;;;;;;;;;16.49;65.34;99996.88;4929340;29;19930;-80
2024/03/18 17:16:49;;;;;;;;;;;;;;;16.50;66.08;100007.31;4929353;29;19919;-90
2024/03/18 17:19:16;;;;;;;;;;;;;;;16.57;65.91;100005.59;4927126;29;19977;-85
2024/03/18 17:21:42;;;;;;;;;;;;;;;16.56;65.44;100003.88;4936825;28;19922;-82
2024/03/18 17:24:07;;;;;;;;;;;;;;;16.61;65.75;100004.75;4945740;28;19922;-88
2024/03/18 17:26:35;;;;;;;;;;;;;;;16.39;65.94;100001.16;4930809;29;19926;-82
2024/03/18 17:29:01;;;;;;;;;;;;;;;16.03;68.77;100009.63;4964280;28;19918;-87
2024/03/18 17:31:26;;;;;;;;;;;;;;;15.55;75.80;100009.19;4985245;28;19980;-87
2024/03/18 17:33:52;;;;;;;;;;;;;;;15.24;76.53;100009.78;4972883;28;20450;-85
2024/03/18 17:36:18;;;;;;;;;;;;;;;15.04;76.38;100017.34;5019018;28;20291;-86
2024/03/18 17:38:44;;;;;;;;;;;;;;;14.87;77.69;100018.03;5010285;28;19918;-82
2024/03/18 17:41:11;;;;;;;;;;;;;;;14.70;79.64;100020.44;5007842;28;19922;-83
2024/03/18 17:43:36;;;;;;;;;;;;;;;14.63;81.78;100025.47;5010991;28;19931;-83
2024/03/18 17:46:02;;;;;;;;;;;;;;;14.68;85.67;100024.72;5014109;28;19925;-85
2024/03/18 17:48:33;;;;;;;;;;;;;;;14.73;79.65;100024.78;5015772;28;19971;-84
2024/03/18 17:51:01;;;;;;;;;;;;;;;14.94;79.75;100023.28;5014723;28;19917;-86
2024/03/18 17:53:32;;;;;;;;;;;;;;;15.11;78.05;100021.75;5011901;28;19944;-88
2024/03/18 17:56:03;;;;;;;;;;;;;;;15.28;75.72;100016.75;5015924;28;19928;-83
2024/03/18 17:58:29;;;;;;;;;;;;;;;15.43;76.12;100018.63;5015933;28;19979;-80
2024/03/18 18:00:57;;;;;;;;;;;;;;;15.61;75.13;100020.53;5002425;28;19968;-80
2024/03/18 18:03:25;;;;;;;;;;;;;;;15.80;74.57;100028.50;5016611;28;19925;-83
2024/03/18 18:05:53;;;;;;;;;;;;;;;15.84;74.96;100025.97;5011499;28;19929;-83
2024/03/18 18:08:18;;;;;;;;;;;;;;;15.89;74.74;100028.63;4994233;28;19922;-83
2024/03/18 18:10:45;;;;;;;;;;;;;;;15.90;74.04;100026.88;4993054;28;20477;-84
2024/03/18 18:13:11;;;;;;;;;;;;;;;15.93;76.46;100024.31;5010111;28;20007;-80
2024/03/18 18:15:36;;;;;;;;;;;;;;;16.00;75.69;100026.97;5011651;28;19918;-89
2024/03/18 18:18:04;;;;;;;;;;;;;;;16.00;76.33;100028.72;4995929;28;20409;-85
2024/03/18 18:20:31;;;;;;;;;;;;;;;16.01;74.73;100030.44;4969072;28;19926;-88
2024/03/18 18:22:57;;;;;;;;;;;;;;;15.99;72.66;100038.22;4971069;28;20379;-87
2024/03/18 18:25:22;;;;;;;;;;;;;;;16.00;73.87;100034.78;4962329;28;20467;-82
2024/03/18 18:27:51;;;;;;;;;;;;;;;16.00;75.61;100034.78;4936697;29;19969;-85
2024/03/18 18:30:16;;;;;;;;;;;;;;;15.92;74.44;100036.44;4938030;29;19918;-91
2024/03/18 18:32:46;;;;;;;;;;;;;;;15.95;72.82;100039.09;4938325;29;20368;-90
2024/03/18 18:35:13;;;;;;;;;;;;;;;16.00;73.13;100039.97;4938175;29;20344;-88
2024/03/18 18:37:40;;;;;;;;;;;;;;;16.05;73.85;100034.81;4955825;29;19922;-86
2024/03/18 18:40:06;;;;;;;;;;;;;;;16.04;75.10;100035.69;4958352;28;19946;-87
2024/03/18 18:42:32;;;;;;;;;;;;;;;16.05;75.45;100031.31;4957717;29;20017;-85
2024/03/18 18:44:58;;;;;;;;;;;;;;;15.98;74.11;100039.09;4947283;28;20431;-88
2024/03/18 18:47:23;;;;;;;;;;;;;;;15.84;74.19;100038.13;4932445;29;19918;-85
2024/03/18 18:49:49;;;;;;;;;;;;;;;15.85;76.74;100039.88;4954985;28;19970;-85
2024/03/18 18:52:17;;;;;;;;;;;;;;;15.84;77.02;100033.78;4960649;28;20317;-83
2024/03/18 18:54:42;;;;;;;;;;;;;;;15.80;77.00;100033.69;4958986;28;20391;-85
2024/03/18 18:57:08;;;;;;;;;;;;;;;15.77;75.86;100031.94;4973981;28;19973;-91
2024/03/18 18:59:35;;;;;;;;;;;;;;;15.65;75.49;100035.31;4952659;28;19922;-85
2024/03/18 19:02:01;;;;;;;;;;;;;;;15.56;76.19;100037.81;4974251;28;20021;-85
2024/03/18 19:04:27;;;;;;;;;;;;;;;15.26;77.44;100038.41;4963106;28;19918;-77
2024/03/18 19:06:52;;;;;;;;;;;;;;;14.76;80.19;100043.00;5012475;28;19922;-78
2024/03/18 19:09:19;;;;;;;;;;;;;;;14.32;82.46;100046.69;5015856;28;19944;-81
2024/03/18 19:11:46;;;;;;;;;;;;;;;14.06;83.35;100044.56;5014646;28;19921;-84
2024/03/18 19:14:12;;;;;;;;;;;;;;;13.90;86.00;100038.25;5018531;28;20414;-81
2024/03/18 19:16:38;;;;;;;;;;;;;;;13.81;87.02;100045.03;5015227;28;20372;-77
2024/03/18 19:19:04;;;;;;;;;;;;;;;13.71;87.31;100031.03;5013138;28;20011;-82
2024/03/18 19:21:31;;;;;;;;;;;;;;;13.62;83.94;100036.03;4961346;28;19928;-80
2024/03/18 19:23:58;;;;;;;;;;;;;;;13.58;84.72;100045.50;5015722;28;19929;-81
2024/03/18 19:26:24;;;;;;;;;;;;;;;13.56;85.34;100047.19;5016283;28;19922;-83
2024/03/18 19:28:49;;;;;;;;;;;;;;;13.51;86.26;100038.47;5016409;28;19998;-83
2024/03/18 19:31:16;;;;;;;;;;;;;;;13.44;88.12;100047.84;5019236;28;19949;-81
2024/03/18 19:33:41;;;;;;;;;;;;;;;13.35;88.58;100043.31;5009886;28;19925;-81
2024/03/18 19:36:08;;;;;;;;;;;;;;;13.22;90.66;100043.94;5019865;28;20024;-82
2024/03/18 19:38:34;;;;;;;;;;;;;;;13.02;92.73;100043.53;5009114;28;19961;-79
2024/03/18 19:40:59;;;;;;;;;;;;;;;12.97;91.28;100046.03;4996841;28;19988;-80
2024/03/18 19:43:26;;;;;;;;;;;;;;;12.86;91.01;100042.34;4994179;28;20011;-79
2024/03/18 19:45:53;;;;;;;;;;;;;;;12.70;91.08;100052.41;4995027;28;20033;-80
2024/03/18 19:48:18;;;;;;;;;;;;;;;12.54;91.05;100060.69;4999262;28;19922;-79
2024/03/18 19:50:45;;;;;;;;;;;;;;;12.54;95.06;100077.09;5000720;28;19934;-79
2024/03/18 19:53:11;;;;;;;;;;;;;;;12.58;95.31;100070.25;4996041;28;19918;-79
2024/03/18 19:55:38;;;;;;;;;;;;;;;12.48;94.90;100065.72;4999835;28;20358;-82
2024/03/18 19:58:04;;;;;;;;;;;;;;;12.59;94.83;100059.06;4987142;28;19980;-85
2024/03/18 20:00:32;;;;;;;;;;;;;;;12.68;93.93;100059.25;4981848;28;19925;-82
2024/03/18 20:02:58;;;;;;;;;;;;;;;12.79;94.17;100059.50;5002285;28;20374;-78
2024/03/18 20:05:23;;;;;;;;;;;;;;;13.02;93.01;100065.16;4983981;28;19921;-80
2024/03/18 20:07:51;;;;;;;;;;;;;;;13.29;91.30;100060.50;4979951;28;19954;-77
2024/03/18 20:10:17;;;;;;;;;;;;;;;13.44;93.71;100063.41;4959525;28;20377;-80
2024/03/18 20:12:46;;;;;;;;;;;;;;;13.53;92.59;100068.78;4954446;28;19930;-80
2024/03/18 20:15:12;;;;;;;;;;;;;;;13.68;89.24;100068.19;4950259;28;19981;-81
2024/03/18 20:17:38;;;;;;;;;;;;;;;13.85;87.93;100075.38;4933214;29;20328;-79
2024/03/18 20:20:10;;;;;;;;;;;;;;;14.01;85.24;100077.38;4948322;28;20449;-80
2024/03/18 20:22:36;;;;;;;;;;;;;;;14.08;83.46;100074.03;4944684;29;19958;-81
2024/03/18 20:25:03;;;;;;;;;;;;;;;14.11;84.23;100067.16;4950293;28;20290;-78
2024/03/18 20:27:28;;;;;;;;;;;;;;;14.06;82.05;100073.13;4950581;29;20452;-79
2024/03/18 20:29:53;;;;;;;;;;;;;;;14.07;81.72;100061.91;4953705;28;19968;-82
2024/03/18 20:32:19;;;;;;;;;;;;;;;13.90;79.38;100058.16;4969513;28;19924;-80
2024/03/18 20:34:47;;;;;;;;;;;;;;;13.70;82.50;100050.03;4969004;28;20041;-80
2024/03/18 20:37:13;;;;;;;;;;;;;;;13.75;84.62;100058.75;4953108;28;19922;-81
2024/03/18 20:39:38;;;;;;;;;;;;;;;13.77;84.83;100057.09;4972451;28;20595;-80
2024/03/18 20:42:07;;;;;;;;;;;;;;;13.74;86.76;100057.00;5003860;28;20051;-81
2024/03/18 20:44:33;;;;;;;;;;;;;;;13.79;89.95;100060.56;5012808;28;20375;-81
2024/03/18 20:47:00;;;;;;;;;;;;;;;13.71;91.00;100059.56;5008677;28;19928;-80
2024/03/18 20:49:27;;;;;;;;;;;;;;;13.73;90.50;100061.34;5014871;28;19928;-79
2024/03/18 20:51:52;;;;;;;;;;;;;;;13.81;90.62;100053.69;5010260;28;20385;-81
2024/03/18 20:54:18;;;;;;;;;;;;;;;13.86;89.13;100051.19;5005389;28;19918;-79
2024/03/18 20:56:43;;;;;;;;;;;;;;;13.87;88.88;100043.41;5014246;28;20059;-82
2024/03/18 20:59:09;;;;;;;;;;;;;;;13.97;89.14;100040.94;5014609;28;19925;-80
2024/03/18 21:01:34;;;;;;;;;;;;;;;14.04;89.05;100046.28;5009874;28;19925;-81
2024/03/18 21:04:00;;;;;;;;;;;;;;;14.15;88.01;100048.16;5009944;28;20303;-80
2024/03/18 21:06:27;;;;;;;;;;;;;;;14.20;87.87;100051.72;5012958;28;19925;-80
2024/03/18 21:08:52;;;;;;;;;;;;;;;14.23;88.13;100049.16;5017464;28;19932;-78
2024/03/18 21:11:21;;;;;;;;;;;;;;;14.24;86.85;100054.38;5017689;28;19940;-78
2024/03/18 21:13:47;;;;;;;;;;;;;;;14.28;87.32;100050.13;5015418;28;19984;-79
2024/03/18 21:16:12;;;;;;;;;;;;;;;14.28;86.85;100042.31;5020134;28;19925;-79
2024/03/18 21:18:38;;;;;;;;;;;;;;;14.26;86.84;100045.75;5013250;28;19925;-79
2024/03/18 21:21:04;;;;;;;;;;;;;;;14.21;85.37;100049.13;5012220;28;19921;-79
2024/03/18 21:23:29;;;;;;;;;;;;;;;14.22;85.62;100052.63;5016531;28;19921;-85
2024/03/18 21:25:55;;;;;;;;;;;;;;;14.18;84.91;100046.50;5010325;28;20023;-79
2024/03/18 21:28:20;;;;;;;;;;;;;;;14.17;84.42;100046.47;5010629;28;20016;-83
2024/03/18 21:30:46;;;;;;;;;;;;;;;14.06;84.26;100051.50;5014280;28;19924;-81
2024/03/18 21:33:11;;;;;;;;;;;;;;;14.10;83.33;100045.50;5007349;28;19922;-81
2024/03/18 21:35:37;;;;;;;;;;;;;;;14.13;83.83;100047.25;5007109;28;19921;-80
2024/03/18 21:38:02;;;;;;;;;;;;;;;14.10;84.26;100049.81;5006880;28;20464;-79
2024/03/18 21:40:27;;;;;;;;;;;;;;;14.05;84.56;100042.81;4989994;28;20359;-81
2024/03/18 21:42:53;;;;;;;;;;;;;;;14.08;84.71;100049.78;5007524;28;20285;-79
2024/03/18 21:45:18;;;;;;;;;;;;;;;14.03;87.86;100039.34;5007276;28;20445;-78
2024/03/18 21:47:44;;;;;;;;;;;;;;;13.94;88.55;100034.00;4996374;28;19917;-83
2024/03/18 21:50:09;;;;;;;;;;;;;;;13.87;88.67;100045.16;4990992;28;19918;-82
2024/03/18 21:52:36;;;;;;;;;;;;;;;13.89;87.51;100046.03;4990986;28;19949;-82
2024/03/18 21:55:02;;;;;;;;;;;;;;;13.87;86.44;100050.34;5007236;28;19921;-87
2024/03/18 21:57:27;;;;;;;;;;;;;;;13.86;84.57;100049.44;4990930;28;19933;-77
2024/03/18 21:59:53;;;;;;;;;;;;;;;13.89;83.50;100048.63;5012798;28;19950;-74
2024/03/18 22:02:18;;;;;;;;;;;;;;;13.88;82.17;100049.47;5014995;28;20052;-76
2024/03/18 22:04:43;;;;;;;;;;;;;;;13.84;81.71;100055.47;5013552;28;19984;-79
2024/03/18 22:07:09;;;;;;;;;;;;;;;13.83;83.36;100049.41;5013628;28;19980;-76
2024/03/18 22:09:37;;;;;;;;;;;;;;;13.81;84.79;100047.63;5010820;28;19921;-77
2024/03/18 22:12:02;;;;;;;;;;;;;;;13.74;89.23;100046.63;5022699;28;19925;-77
2024/03/18 22:14:29;;;;;;;;;;;;;;;13.77;86.51;100044.13;5014630;28;20443;-78
2024/03/18 22:16:54;;;;;;;;;;;;;;;13.69;85.57;100049.16;5021091;28;19924;-79
2024/03/18 22:19:20;;;;;;;;;;;;;;;13.61;86.06;100044.66;5022981;28;19921;-77
2024/03/18 22:21:45;;;;;;;;;;;;;;;13.61;90.25;100050.75;5017423;28;20358;-78
2024/03/18 22:24:11;;;;;;;;;;;;;;;13.64;93.91;100052.53;5019987;28;19952;-77
2024/03/18 22:26:37;;;;;;;;;;;;;;;13.57;98.30;100044.63;5013343;28;19972;-78
2024/03/18 22:29:03;;;;;;;;;;;;;;;13.63;95.53;100051.63;5017506;28;19976;-78
2024/03/18 22:31:28;;;;;;;;;;;;;;;13.67;93.99;100050.84;5015987;28;19926;-78
2024/03/18 22:33:54;;;;;;;;;;;;;;;13.63;92.53;100041.25;5014583;28;19944;-78
2024/03/18 22:36:19;;;;;;;;;;;;;;;13.53;96.11;100031.56;5008352;28;19922;-77
2024/03/18 22:38:45;;;;;;;;;;;;;;;13.50;97.73;100029.81;5021008;28;20008;-78
2024/03/18 22:41:20;;;;;;;;;;;;;;;13.28;98.63;100025.91;5016472;28;19921;-77
2024/03/18 22:43:46;;;;;;;;;;;;;;;13.15;98.16;100016.16;5012355;28;19922;-77